Time;durP1;ratioP1;P1;durP2;ratioP2;P2;SDS_P1;SDS_P2;PMS_P1;PMS_P2;Temp;Humidity;BMP_temperature;BMP_pressure;BME280_temperature;BME280_humidity;BME280_pressure;Samples;Min_cycle;Max_cycle;Signal;HPM_P1;HPM_P2
2022/01/21 00:02:02;;;;;;;10.35;5.75;;;;;;;;;;4830016;29;20101;-80
2022/01/21 00:04:31;;;;;;;8.90;5.05;;;;;;;;;;4814872;29;20054;-79
2022/01/21 00:07:04;;;;;;;5.35;4.82;;;;;;;;;;4814368;29;20054;-80
2022/01/21 00:09:32;;;;;;;5.55;4.72;;;;;;;;;;4813359;29;20476;-80
2022/01/21 00:11:59;;;;;;;5.03;3.60;;;;;;;;;;4799192;29;20564;-80
2022/01/21 00:14:28;;;;;;;9.00;3.97;;;;;;;;;;4796228;29;20437;-80
2022/01/21 00:16:56;;;;;;;5.43;4.88;;;;;;;;;;4822082;29;20061;-80
2022/01/21 00:19:26;;;;;;;11.40;5.13;;;;;;;;;;4850797;29;20045;-81
2022/01/21 00:30:09;;;;;;;4.70;3.90;;;;;;;;;;4834934;29;20066;-80
2022/01/21 00:30:27;;;;;;;4.47;4.10;;;;;;;;;;4836950;29;20061;-80
2022/01/21 00:32:55;;;;;;;10.65;5.07;;;;;;;;;;4841961;29;20511;-80
2022/01/21 00:35:24;;;;;;;4.88;4.38;;;;;;;;;;4849038;29;20050;-80
2022/01/21 00:37:52;;;;;;;3.83;3.38;;;;;;;;;;4834926;29;20501;-80
2022/01/21 00:40:23;;;;;;;5.03;4.53;;;;;;;;;;4835352;29;20066;-80
2022/01/21 00:43:06;;;;;;;7.83;3.77;;;;;;;;;;4848861;29;20057;-80
2022/01/21 00:45:35;;;;;;;4.28;3.88;;;;;;;;;;4871227;29;20061;-80
2022/01/21 00:48:05;;;;;;;7.68;3.78;;;;;;;;;;4871411;29;20072;-80
2022/01/21 00:50:33;;;;;;;4.20;3.88;;;;;;;;;;4856032;29;20057;-80
2022/01/21 00:53:01;;;;;;;4.18;3.45;;;;;;;;;;4844091;29;20519;-81
2022/01/21 00:55:29;;;;;;;5.63;5.28;;;;;;;;;;4847637;29;20053;-80
2022/01/21 00:57:57;;;;;;;6.65;5.13;;;;;;;;;;4870569;29;20053;-80
2022/01/21 01:00:26;;;;;;;3.63;3.38;;;;;;;;;;4853188;29;20061;-80
2022/01/21 01:02:53;;;;;;;10.93;5.80;;;;;;;;;;4858889;29;20058;-80
2022/01/21 01:05:22;;;;;;;3.30;3.00;;;;;;;;;;4856567;29;20062;-80
2022/01/21 01:07:53;;;;;;;3.38;3.10;;;;;;;;;;4833958;29;20680;-80
2022/01/21 01:21:26;;;;;;;5.75;5.28;;;;;;;;;;4852066;29;20100;-80
2022/01/21 01:29:26;;;;;;;3.45;3.20;;;;;;;;;;4846797;29;20057;-79
2022/01/21 01:31:54;;;;;;;6.28;4.63;;;;;;;;;;4838838;29;20056;-79
2022/01/21 01:34:23;;;;;;;6.30;3.10;;;;;;;;;;4860815;29;20058;-80
2022/01/21 01:36:57;;;;;;;23.17;5.53;;;;;;;;;;4866478;29;20057;-80
2022/01/21 01:39:42;;;;;;;4.25;3.15;;;;;;;;;;4832390;29;20058;-79
2022/01/21 01:42:41;;;;;;;3.85;3.30;;;;;;;;;;4831777;29;20066;-80
2022/01/21 01:50:37;;;;;;;9.13;3.03;;;;;;;;;;4834169;29;20053;-80
2022/01/21 01:53:06;;;;;;;4.45;4.15;;;;;;;;;;4833401;29;20061;-79
2022/01/21 01:55:35;;;;;;;9.82;5.93;;;;;;;;;;4842164;29;20050;-80
2022/01/21 01:58:04;;;;;;;5.93;3.28;;;;;;;;;;4857121;29;20049;-80
2022/01/21 02:00:32;;;;;;;9.13;4.88;;;;;;;;;;4870438;29;20057;-80
2022/01/21 02:03:48;;;;;;;5.70;4.07;;;;;;;;;;4885074;29;20045;-87
2022/01/21 02:07:30;;;;;;;3.20;2.90;;;;;;;;;;4804468;29;20776;-80
2022/01/21 02:09:58;;;;;;;9.02;5.38;;;;;;;;;;4832440;29;20050;-80
2022/01/21 02:12:27;;;;;;;11.75;6.15;;;;;;;;;;4849965;29;20052;-79
2022/01/21 02:14:55;;;;;;;6.53;4.90;;;;;;;;;;4850723;29;20411;-79
2022/01/21 02:24:34;;;;;;;4.50;3.03;;;;;;;;;;4830062;29;20050;-79
2022/01/21 02:27:32;;;;;;;4.57;2.70;;;;;;;;;;4838244;29;20068;-79
2022/01/21 02:31:07;;;;;;;3.35;3.05;;;;;;;;;;4838491;29;20497;-79
2022/01/21 02:34:09;;;;;;;2.78;2.58;;;;;;;;;;4799096;29;20515;-79
2022/01/21 02:36:37;;;;;;;1.60;1.50;;;;;;;;;;4860116;29;20050;-80
2022/01/21 02:39:05;;;;;;;3.28;2.03;;;;;;;;;;4852807;29;20408;-80
2022/01/21 02:41:33;;;;;;;1.77;1.38;;;;;;;;;;4833031;29;20066;-80
2022/01/21 02:44:01;;;;;;;4.25;2.25;;;;;;;;;;4853582;29;20053;-80
2022/01/21 02:46:35;;;;;;;1.13;1.13;;;;;;;;;;4883767;29;20065;-80
2022/01/21 02:49:05;;;;;;;2.05;1.95;;;;;;;;;;4860964;29;20049;-80
2022/01/21 02:51:33;;;;;;;1.95;1.85;;;;;;;;;;4851556;29;20431;-78
2022/01/21 02:54:05;;;;;;;5.40;2.40;;;;;;;;;;4867116;29;20794;-79
2022/01/21 02:56:35;;;;;;;1.58;1.58;;;;;;;;;;4878706;29;20068;-80
2022/01/21 02:59:04;;;;;;;1.10;1.10;;;;;;;;;;4859471;29;20053;-80
2022/01/21 03:01:34;;;;;;;4.50;1.50;;;;;;;;;;4858667;29;20128;-80
2022/01/21 03:04:06;;;;;;;2.53;1.85;;;;;;;;;;4868977;29;20543;-80
2022/01/21 03:06:36;;;;;;;5.28;2.10;;;;;;;;;;4855666;29;20053;-79
2022/01/21 03:09:07;;;;;;;2.38;2.28;;;;;;;;;;4868459;29;20390;-80
2022/01/21 03:11:35;;;;;;;4.47;2.40;;;;;;;;;;4851844;29;20465;-80
2022/01/21 03:14:03;;;;;;;6.45;2.70;;;;;;;;;;4860518;29;20045;-80
2022/01/21 03:16:33;;;;;;;3.47;2.60;;;;;;;;;;4868520;29;20049;-80
2022/01/21 03:19:05;;;;;;;3.30;3.10;;;;;;;;;;4855050;29;20068;-80
2022/01/21 03:21:33;;;;;;;2.83;2.63;;;;;;;;;;4852662;29;20058;-80
2022/01/21 03:24:02;;;;;;;6.47;3.53;;;;;;;;;;4868549;29;20049;-80
2022/01/21 03:26:30;;;;;;;8.05;2.55;;;;;;;;;;4850372;29;20053;-80
2022/01/21 03:29:00;;;;;;;4.88;4.47;;;;;;;;;;4833911;29;20050;-80
2022/01/21 03:31:33;;;;;;;5.40;4.95;;;;;;;;;;4834639;29;20057;-80
2022/01/21 03:34:04;;;;;;;11.25;5.13;;;;;;;;;;4845596;29;20068;-80
2022/01/21 03:36:35;;;;;;;5.72;3.58;;;;;;;;;;4862481;29;20062;-80
2022/01/21 03:39:04;;;;;;;4.28;3.08;;;;;;;;;;4866381;29;20061;-80
2022/01/21 03:41:32;;;;;;;3.13;2.67;;;;;;;;;;4867810;29;20088;-80
2022/01/21 03:44:00;;;;;;;7.15;3.58;;;;;;;;;;4878080;29;20057;-80
2022/01/21 03:46:31;;;;;;;6.53;5.27;;;;;;;;;;4856731;29;20058;-80
2022/01/21 03:49:02;;;;;;;3.30;3.10;;;;;;;;;;4842103;29;20078;-80
2022/01/21 03:51:42;;;;;;;2.90;2.63;;;;;;;;;;4834280;29;20078;-80
2022/01/21 03:54:42;;;;;;;2.93;2.70;;;;;;;;;;4835056;29;20045;-80
2022/01/21 03:57:30;;;;;;;9.90;3.72;;;;;;;;;;4880587;29;20056;-80
2022/01/21 04:00:11;;;;;;;6.00;2.28;;;;;;;;;;4854947;29;20662;-80
2022/01/21 04:02:48;;;;;;;10.30;4.07;;;;;;;;;;4841917;29;20061;-80
2022/01/21 04:05:19;;;;;;;4.28;3.08;;;;;;;;;;4833313;29;20500;-79
2022/01/21 04:07:47;;;;;;;22.77;4.47;;;;;;;;;;4833286;29;20057;-80
2022/01/21 04:10:16;;;;;;;4.32;3.35;;;;;;;;;;4843173;29;20056;-79
2022/01/21 04:12:44;;;;;;;9.45;6.47;;;;;;;;;;4838103;29;20053;-80
2022/01/21 04:15:15;;;;;;;24.60;4.72;;;;;;;;;;4849503;29;20797;-80
2022/01/21 04:17:43;;;;;;;4.05;3.75;;;;;;;;;;4835681;29;20077;-80
2022/01/21 04:20:13;;;;;;;30.85;6.22;;;;;;;;;;4851605;29;20045;-80
2022/01/21 04:22:41;;;;;;;4.45;3.38;;;;;;;;;;4844368;29;20050;-80
2022/01/21 04:25:10;;;;;;;11.63;3.85;;;;;;;;;;4833763;29;20072;-79
2022/01/21 04:27:39;;;;;;;6.13;3.78;;;;;;;;;;4848197;29;20057;-79
2022/01/21 04:30:08;;;;;;;4.68;2.83;;;;;;;;;;4833987;29;20057;-80
2022/01/21 04:32:37;;;;;;;5.38;4.07;;;;;;;;;;4838304;29;20508;-79
2022/01/21 04:35:10;;;;;;;4.32;3.70;;;;;;;;;;4864622;29;20072;-79
2022/01/21 04:37:49;;;;;;;3.15;2.88;;;;;;;;;;4852109;29;20049;-80
2022/01/21 04:40:20;;;;;;;13.13;3.50;;;;;;;;;;4836479;29;20587;-80
2022/01/21 04:48:29;;;;;;;3.67;3.33;;;;;;;;;;4858986;29;20069;-80
2022/01/21 04:51:17;;;;;;;6.88;3.88;;;;;;;;;;4834019;29;20064;-80
2022/01/21 04:53:46;;;;;;;2.75;2.42;;;;;;;;;;4831979;29;20251;-80
2022/01/21 04:56:34;;;;;;;4.18;2.58;;;;;;;;;;4847331;29;20053;-79
2022/01/21 04:59:02;;;;;;;1.67;1.58;;;;;;;;;;4851017;29;20050;-79
2022/01/21 05:01:31;;;;;;;1.98;1.88;;;;;;;;;;4867372;29;20058;-80
2022/01/21 05:04:00;;;;;;;2.63;1.95;;;;;;;;;;4867337;29;20524;-80
2022/01/21 05:06:29;;;;;;;2.05;1.38;;;;;;;;;;4867119;29;20045;-79
2022/01/21 05:09:02;;;;;;;4.38;1.42;;;;;;;;;;4839232;29;20053;-79
2022/01/21 05:11:35;;;;;;;1.50;1.40;;;;;;;;;;4867019;29;20050;-80
2022/01/21 05:14:23;;;;;;;3.25;2.25;;;;;;;;;;4867124;29;20065;-80
2022/01/21 05:17:04;;;;;;;3.25;2.45;;;;;;;;;;4860835;29;20049;-79
2022/01/21 05:19:32;;;;;;;1.67;1.58;;;;;;;;;;4855437;29;20058;-79
2022/01/21 05:22:21;;;;;;;1.33;1.27;;;;;;;;;;4834144;29;20519;-79
2022/01/21 05:24:52;;;;;;;1.63;1.52;;;;;;;;;;4848280;29;20054;-79
2022/01/21 05:27:20;;;;;;;2.00;1.90;;;;;;;;;;4834733;29;20527;-79
2022/01/21 05:29:51;;;;;;;4.28;2.38;;;;;;;;;;4856092;29;20068;-79
2022/01/21 05:32:37;;;;;;;3.25;3.05;;;;;;;;;;4832497;29;20062;-79
2022/01/21 05:35:06;;;;;;;1.48;1.38;;;;;;;;;;4842377;29;20050;-79
2022/01/21 05:37:44;;;;;;;1.33;1.33;;;;;;;;;;4847815;29;20065;-79
2022/01/21 05:40:30;;;;;;;2.63;1.25;;;;;;;;;;4858379;29;20057;-80
2022/01/21 05:43:05;;;;;;;1.52;1.50;;;;;;;;;;4839048;29;20049;-80
2022/01/21 05:48:56;;;;;;;3.97;2.80;;;;;;;;;;4866554;29;20060;-79
2022/01/21 05:51:47;;;;;;;2.10;2.03;;;;;;;;;;4829371;29;20057;-79
2022/01/21 05:54:26;;;;;;;1.27;1.27;;;;;;;;;;4833389;29;20869;-80
2022/01/21 05:57:16;;;;;;;1.48;1.38;;;;;;;;;;4864608;29;20067;-80
2022/01/21 05:59:49;;;;;;;1.80;1.70;;;;;;;;;;4883444;24;20062;-81
2022/01/21 06:02:18;;;;;;;2.15;1.95;;;;;;;;;;4819564;29;20606;-80
2022/01/21 06:04:49;;;;;;;2.80;2.05;;;;;;;;;;4836207;29;20120;-81
2022/01/21 06:07:18;;;;;;;1.67;1.65;;;;;;;;;;4834893;29;20061;-81
2022/01/21 06:09:47;;;;;;;1.58;1.55;;;;;;;;;;4835015;29;20054;-82
2022/01/21 06:12:15;;;;;;;2.25;2.15;;;;;;;;;;4847188;29;20061;-81
2022/01/21 06:14:43;;;;;;;2.15;1.17;;;;;;;;;;4833522;29;20058;-81
2022/01/21 06:17:13;;;;;;;3.17;2.05;;;;;;;;;;4855713;29;20054;-81
2022/01/21 06:19:43;;;;;;;1.13;1.13;;;;;;;;;;4832442;29;20500;-80
2022/01/21 06:22:12;;;;;;;2.17;1.77;;;;;;;;;;4828967;29;20054;-80
2022/01/21 06:24:41;;;;;;;4.53;1.77;;;;;;;;;;4834536;29;20046;-82
2022/01/21 06:27:09;;;;;;;3.40;1.67;;;;;;;;;;4832389;29;20554;-80
2022/01/21 06:29:37;;;;;;;5.60;2.65;;;;;;;;;;4835437;29;20061;-80
2022/01/21 06:32:05;;;;;;;1.35;1.35;;;;;;;;;;4837813;29;20046;-80
2022/01/21 06:34:33;;;;;;;2.30;2.15;;;;;;;;;;4837620;29;20058;-81
2022/01/21 06:37:02;;;;;;;2.90;2.75;;;;;;;;;;4836322;29;20057;-80
2022/01/21 06:39:30;;;;;;;5.72;1.75;;;;;;;;;;4849930;29;20058;-80
2022/01/21 06:41:58;;;;;;;2.30;2.13;;;;;;;;;;4837479;29;20058;-80
2022/01/21 06:44:26;;;;;;;4.53;3.78;;;;;;;;;;4849954;29;20045;-81
2022/01/21 06:46:54;;;;;;;4.88;1.63;;;;;;;;;;4856195;29;20136;-80
2022/01/21 06:49:22;;;;;;;2.88;2.28;;;;;;;;;;4848156;29;20053;-80
2022/01/21 06:51:50;;;;;;;1.50;1.42;;;;;;;;;;4837144;29;20115;-80
2022/01/21 06:54:18;;;;;;;3.70;2.10;;;;;;;;;;4837212;29;20050;-80
2022/01/21 06:56:48;;;;;;;2.15;2.03;;;;;;;;;;4847678;29;20050;-80
2022/01/21 06:59:20;;;;;;;3.95;2.80;;;;;;;;;;4853876;29;20046;-80
2022/01/21 07:01:48;;;;;;;4.57;2.30;;;;;;;;;;4853643;29;20074;-81
2022/01/21 07:04:16;;;;;;;4.47;3.53;;;;;;;;;;4855089;29;20798;-81
2022/01/21 07:06:45;;;;;;;3.80;3.55;;;;;;;;;;4852623;29;20065;-80
2022/01/21 07:09:13;;;;;;;2.03;1.88;;;;;;;;;;4835391;29;20054;-81
2022/01/21 07:11:41;;;;;;;2.08;1.98;;;;;;;;;;4836562;29;20050;-81
2022/01/21 07:14:09;;;;;;;9.77;2.53;;;;;;;;;;4835892;29;20058;-81
2022/01/21 07:16:38;;;;;;;3.92;2.40;;;;;;;;;;4836593;29;20057;-80
2022/01/21 07:19:06;;;;;;;4.53;2.97;;;;;;;;;;4847441;29;20433;-81
2022/01/21 07:21:34;;;;;;;3.97;3.13;;;;;;;;;;4839434;29;20049;-82
2022/01/21 07:24:34;;;;;;;3.95;2.40;;;;;;;;;;4848211;29;20045;-85
2022/01/21 07:27:02;;;;;;;2.45;2.20;;;;;;;;;;4839932;29;20049;-82
2022/01/21 07:29:30;;;;;;;3.83;2.10;;;;;;;;;;4832480;29;20050;-83
2022/01/21 07:32:15;;;;;;;4.85;3.33;;;;;;;;;;4833260;29;20412;-83
2022/01/21 07:34:48;;;;;;;3.25;2.53;;;;;;;;;;4827865;29;20400;-85
2022/01/21 07:37:21;;;;;;;1.38;1.38;;;;;;;;;;4839582;29;20045;-83
2022/01/21 07:39:50;;;;;;;6.82;2.70;;;;;;;;;;4838722;29;20424;-82
2022/01/21 07:42:18;;;;;;;2.10;2.00;;;;;;;;;;4837907;29;20053;-82
2022/01/21 07:44:49;;;;;;;2.20;2.10;;;;;;;;;;4840396;29;20535;-82
2022/01/21 07:47:17;;;;;;;5.07;3.15;;;;;;;;;;4836132;29;20065;-82
2022/01/21 07:49:45;;;;;;;4.10;3.75;;;;;;;;;;4839396;29;20061;-82
2022/01/21 07:52:14;;;;;;;2.92;2.72;;;;;;;;;;4853722;29;20050;-82
2022/01/21 07:54:43;;;;;;;3.22;3.00;;;;;;;;;;4849999;29;20411;-82
2022/01/21 07:57:12;;;;;;;3.72;2.92;;;;;;;;;;4854958;29;20065;-82
2022/01/21 07:59:41;;;;;;;4.20;3.78;;;;;;;;;;4853550;29;20060;-81
2022/01/21 08:02:10;;;;;;;7.03;4.10;;;;;;;;;;4854884;29;20100;-82
2022/01/21 08:04:38;;;;;;;8.80;3.33;;;;;;;;;;4853204;29;20050;-81
2022/01/21 08:07:09;;;;;;;5.28;4.20;;;;;;;;;;4847253;29;20049;-81
2022/01/21 08:09:37;;;;;;;3.22;2.92;;;;;;;;;;4844757;29;20135;-80
2022/01/21 08:12:05;;;;;;;2.58;2.25;;;;;;;;;;4823244;29;20058;-79
2022/01/21 08:14:33;;;;;;;6.13;3.15;;;;;;;;;;4817196;29;20050;-80
2022/01/21 08:17:02;;;;;;;4.38;2.92;;;;;;;;;;4817312;29;20050;-80
2022/01/21 08:19:30;;;;;;;2.20;2.10;;;;;;;;;;4817550;29;20069;-79
2022/01/21 08:21:58;;;;;;;11.75;4.18;;;;;;;;;;4827894;29;20057;-80
2022/01/21 08:24:27;;;;;;;2.22;2.13;;;;;;;;;;4847284;29;20060;-79
2022/01/21 08:26:55;;;;;;;14.45;3.47;;;;;;;;;;4839918;29;20050;-80
2022/01/21 08:29:24;;;;;;;5.22;3.33;;;;;;;;;;4853076;29;20049;-80
2022/01/21 08:31:54;;;;;;;5.43;2.70;;;;;;;;;;4854523;29;20049;-80
2022/01/21 08:34:22;;;;;;;4.47;3.67;;;;;;;;;;4839657;29;20054;-80
2022/01/21 08:36:54;;;;;;;4.20;2.83;;;;;;;;;;4839051;29;20053;-80
2022/01/21 08:39:22;;;;;;;3.85;3.63;;;;;;;;;;4835375;29;20054;-81
2022/01/21 08:41:50;;;;;;;4.50;2.40;;;;;;;;;;4836512;29;20556;-80
2022/01/21 08:44:18;;;;;;;3.40;3.15;;;;;;;;;;4846133;29;20046;-80
2022/01/21 08:46:58;;;;;;;7.68;3.20;;;;;;;;;;4854484;29;20056;-85
2022/01/21 08:49:41;;;;;;;3.13;2.83;;;;;;;;;;4844449;29;20057;-81
2022/01/21 08:52:18;;;;;;;7.78;5.00;;;;;;;;;;4838019;29;20085;-80
2022/01/21 08:54:49;;;;;;;5.40;3.03;;;;;;;;;;4835661;29;20053;-81
2022/01/21 08:57:19;;;;;;;4.45;2.72;;;;;;;;;;4849687;29;20499;-81
2022/01/21 08:59:49;;;;;;;4.13;3.50;;;;;;;;;;4838458;29;20070;-81
2022/01/21 09:02:18;;;;;;;12.90;5.32;;;;;;;;;;4834793;29;20083;-79
2022/01/21 09:04:55;;;;;;;8.90;4.00;;;;;;;;;;4834377;29;20042;-81
2022/01/21 09:07:26;;;;;;;2.78;2.40;;;;;;;;;;4834031;29;20046;-82
2022/01/21 09:09:55;;;;;;;;;;;;;;;;;;4836040;29;20054;-82
2022/01/21 09:12:27;;;;;;;5.07;3.55;;;;;;;;;;4834203;29;19939;-81
2022/01/21 09:14:55;;;;;;;13.43;5.15;;;;;;;;;;4834655;29;20061;-80
2022/01/21 09:17:23;;;;;;;4.47;2.92;;;;;;;;;;4838052;29;20046;-79
2022/01/21 09:19:53;;;;;;;4.70;4.25;;;;;;;;;;4840006;29;20073;-80
2022/01/21 09:22:23;;;;;;;9.02;4.05;;;;;;;;;;4837048;29;20046;-80
2022/01/21 09:24:51;;;;;;;7.45;4.63;;;;;;;;;;4841491;29;20057;-80
2022/01/21 09:27:19;;;;;;;7.95;4.88;;;;;;;;;;4842169;29;20054;-81
2022/01/21 09:29:47;;;;;;;3.90;3.60;;;;;;;;;;4842213;29;20084;-80
2022/01/21 09:32:15;;;;;;;4.82;3.85;;;;;;;;;;4840581;29;20058;-80
2022/01/21 09:34:44;;;;;;;4.40;3.97;;;;;;;;;;4837577;29;20046;-79
2022/01/21 09:37:12;;;;;;;14.30;4.93;;;;;;;;;;4836445;29;20057;-80
2022/01/21 09:39:40;;;;;;;5.57;4.20;;;;;;;;;;4846811;29;20070;-80
2022/01/21 09:42:08;;;;;;;6.78;3.03;;;;;;;;;;4834381;29;20420;-81
2022/01/21 09:44:38;;;;;;;14.85;4.35;;;;;;;;;;4831938;29;20054;-80
2022/01/21 09:47:10;;;;;;;12.07;4.43;;;;;;;;;;4825566;29;20058;-80
2022/01/21 09:49:41;;;;;;;;;;;;;;;;;;4815716;29;20531;-81
2022/01/21 09:52:10;;;;;;;3.22;3.03;;;;;;;;;;4848677;29;19935;-80
2022/01/21 09:54:45;;;;;;;5.15;3.17;;;;;;;;;;4834243;29;20053;-82
2022/01/21 09:57:22;;;;;;;8.23;3.60;;;;;;;;;;4836514;29;20400;-81
2022/01/21 09:59:51;;;;;;;3.92;3.60;;;;;;;;;;4848325;29;20057;-80
2022/01/21 10:02:20;;;;;;;8.02;3.40;;;;;;;;;;4853131;29;20051;-81
2022/01/21 10:04:52;;;;;;;8.93;4.32;;;;;;;;;;4855101;29;20053;-81
2022/01/21 10:07:21;;;;;;;2.85;2.45;;;;;;;;;;4855827;29;20053;-80
2022/01/21 10:09:50;;;;;;;7.20;3.17;;;;;;;;;;4857008;29;20057;-80
2022/01/21 10:12:18;;;;;;;5.72;3.78;;;;;;;;;;4852084;29;20049;-79
2022/01/21 10:14:46;;;;;;;9.85;3.50;;;;;;;;;;4838832;29;20500;-80
2022/01/21 10:17:15;;;;;;;4.57;3.80;;;;;;;;;;4831984;29;20057;-81
2022/01/21 10:19:48;;;;;;;4.93;3.70;;;;;;;;;;4822873;29;20061;-81
2022/01/21 10:22:25;;;;;;;5.82;4.00;;;;;;;;;;4819352;29;20059;-81
2022/01/21 10:24:54;;;;;;;4.55;2.78;;;;;;;;;;4825453;29;20061;-80
2022/01/21 10:27:30;;;;;;;2.78;2.58;;;;;;;;;;4822612;29;20065;-81
2022/01/21 10:29:58;;;;;;;3.85;2.58;;;;;;;;;;4833152;29;20062;-80
2022/01/21 10:32:36;;;;;;;13.45;6.05;;;;;;;;;;4834851;29;20050;-81
2022/01/21 10:35:35;;;;;;;11.10;4.13;;;;;;;;;;4801457;29;20481;-81
2022/01/21 10:38:17;;;;;;;3.95;3.55;;;;;;;;;;4807238;29;20485;-81
2022/01/21 10:40:45;;;;;;;;;;;;;;;;;;4819602;29;20056;-79
2022/01/21 10:43:19;;;;;;;4.35;3.95;;;;;;;;;;4834432;29;19932;-82
2022/01/21 10:45:48;;;;;;;4.90;3.38;;;;;;;;;;4819128;29;20066;-80
2022/01/21 10:48:16;;;;;;;7.75;4.80;;;;;;;;;;4818712;29;20050;-80
2022/01/21 10:50:45;;;;;;;11.63;5.60;;;;;;;;;;4801585;29;20062;-80
2022/01/21 10:53:29;;;;;;;9.00;5.65;;;;;;;;;;4800040;29;20097;-81
2022/01/21 10:56:08;;;;;;;8.57;4.10;;;;;;;;;;4808520;29;20050;-79
2022/01/21 10:58:41;;;;;;;9.43;4.30;;;;;;;;;;4836899;29;20061;-79
2022/01/21 11:01:17;;;;;;;3.90;3.58;;;;;;;;;;4836433;29;20065;-79
2022/01/21 11:04:15;;;;;;;3.40;2.85;;;;;;;;;;4836285;29;20073;-79
2022/01/21 11:06:54;;;;;;;6.55;3.45;;;;;;;;;;4811871;29;20061;-80
2022/01/21 11:09:24;;;;;;;7.10;4.63;;;;;;;;;;4811567;29;20055;-79
2022/01/21 11:12:12;;;;;;;5.95;3.33;;;;;;;;;;4800604;29;20057;-79
2022/01/21 11:15:00;;;;;;;7.32;4.40;;;;;;;;;;4816476;29;20061;-80
2022/01/21 11:17:28;;;;;;;5.25;4.07;;;;;;;;;;4817955;29;20046;-78
2022/01/21 11:20:03;;;;;;;3.10;2.40;;;;;;;;;;4817570;29;20050;-79
2022/01/21 11:22:32;;;;;;;9.63;4.53;;;;;;;;;;4817553;29;20054;-79
2022/01/21 11:25:00;;;;;;;11.48;4.90;;;;;;;;;;4817991;29;20054;-80
2022/01/21 11:27:28;;;;;;;2.83;2.63;;;;;;;;;;4815958;29;20528;-79
2022/01/21 11:29:56;;;;;;;16.70;4.78;;;;;;;;;;4801457;29;20067;-80
2022/01/21 11:32:24;;;;;;;3.72;3.47;;;;;;;;;;4805606;29;20497;-82
2022/01/21 11:34:53;;;;;;;10.20;3.67;;;;;;;;;;4812293;29;20146;-80
2022/01/21 11:37:23;;;;;;;3.40;3.13;;;;;;;;;;4813357;29;20065;-80
2022/01/21 11:39:52;;;;;;;2.70;2.50;;;;;;;;;;4799490;29;20391;-79
2022/01/21 11:42:20;;;;;;;10.25;2.92;;;;;;;;;;4799635;29;20050;-80
2022/01/21 11:44:52;;;;;;;6.00;3.42;;;;;;;;;;4829401;29;20053;-80
2022/01/21 11:47:48;;;;;;;5.00;4.13;;;;;;;;;;4846918;29;20057;-80
2022/01/21 11:50:18;;;;;;;10.00;3.47;;;;;;;;;;4817654;29;20062;-79
2022/01/21 11:52:46;;;;;;;4.47;4.05;;;;;;;;;;4812923;29;20528;-79
2022/01/21 11:55:31;;;;;;;7.95;5.07;;;;;;;;;;4816167;29;20508;-81
2022/01/21 11:58:17;;;;;;;12.18;6.90;;;;;;;;;;4811550;29;20054;-80
2022/01/21 12:00:49;;;;;;;33.45;7.00;;;;;;;;;;4816413;29;20502;-80
2022/01/21 12:03:25;;;;;;;7.85;4.20;;;;;;;;;;4816487;29;20054;-80
2022/01/21 12:05:53;;;;;;;6.45;3.90;;;;;;;;;;4818060;29;20061;-80
2022/01/21 12:08:40;;;;;;;7.72;4.43;;;;;;;;;;4817275;29;20054;-80
2022/01/21 12:11:27;;;;;;;4.18;3.53;;;;;;;;;;4817531;29;20065;-80
2022/01/21 12:13:55;;;;;;;3.38;3.13;;;;;;;;;;4817352;29;20066;-80
2022/01/21 12:16:57;;;;;;;10.05;4.20;;;;;;;;;;4816927;29;20599;-79
2022/01/21 12:19:34;;;;;;;5.88;3.33;;;;;;;;;;4816159;29;20050;-80
2022/01/21 12:22:13;;;;;;;5.97;2.95;;;;;;;;;;4817913;29;20058;-81
2022/01/21 12:24:51;;;;;;;6.40;3.10;;;;;;;;;;4816896;29;20050;-80
2022/01/21 12:27:25;;;;;;;5.82;2.20;;;;;;;;;;4816166;29;20102;-81
2022/01/21 12:30:17;;;;;;;5.63;3.28;;;;;;;;;;4810472;29;20058;-80
2022/01/21 12:32:52;;;;;;;3.00;2.60;;;;;;;;;;4822694;29;20058;-82
2022/01/21 12:35:39;;;;;;;3.83;2.92;;;;;;;;;;4821671;29;20058;-81
2022/01/21 12:40:55;;;;;;;3.58;2.85;;;;;;;;;;4816859;29;20054;-81
2022/01/21 12:43:41;;;;;;;14.50;3.15;;;;;;;;;;4820351;29;20053;-81
2022/01/21 12:46:14;;;;;;;6.13;3.80;;;;;;;;;;4818858;29;20050;-78
2022/01/21 12:48:44;;;;;;;2.58;2.42;;;;;;;;;;4832028;29;20057;-82
2022/01/21 12:51:54;;;;;;;3.03;2.78;;;;;;;;;;4798611;29;20058;-81
2022/01/21 12:57:10;;;;;;;4.07;2.15;;;;;;;;;;4819784;29;20061;-81
2022/01/21 12:59:38;;;;;;;3.00;2.80;;;;;;;;;;4821423;29;20519;-80
2022/01/21 13:02:06;;;;;;;2.78;2.58;;;;;;;;;;4816875;29;20061;-80
2022/01/21 13:04:40;;;;;;;5.05;3.17;;;;;;;;;;4816693;29;20300;-79
2022/01/21 13:07:12;;;;;;;2.47;2.28;;;;;;;;;;4821510;29;20066;-81
2022/01/21 13:09:50;;;;;;;2.42;1.80;;;;;;;;;;4817050;29;20064;-80
2022/01/21 13:12:21;;;;;;;5.28;2.25;;;;;;;;;;4834164;29;20416;-79
2022/01/21 13:14:55;;;;;;;2.25;1.88;;;;;;;;;;4826418;29;20065;-82
2022/01/21 13:17:23;;;;;;;4.43;2.13;;;;;;;;;;4805805;29;20497;-79
2022/01/21 13:19:55;;;;;;;3.03;2.92;;;;;;;;;;4827313;29;20050;-79
2022/01/21 13:22:31;;;;;;;3.25;2.53;;;;;;;;;;4827497;29;20046;-79
2022/01/21 13:27:37;;;;;;;2.58;2.15;;;;;;;;;;4815759;29;20607;-79
2022/01/21 13:30:10;;;;;;;2.50;2.40;;;;;;;;;;4829972;29;20489;-80
2022/01/21 13:32:38;;;;;;;3.30;2.47;;;;;;;;;;4816268;29;20055;-80
2022/01/21 13:35:09;;;;;;;4.05;3.30;;;;;;;;;;4815781;29;20047;-81
2022/01/21 13:37:38;;;;;;;1.88;1.77;;;;;;;;;;4818922;29;20058;-79
2022/01/21 13:40:08;;;;;;;3.67;2.55;;;;;;;;;;4815709;29;20046;-80
2022/01/21 13:42:38;;;;;;;2.28;2.13;;;;;;;;;;4815985;29;20787;-79
2022/01/21 13:45:11;;;;;;;3.40;1.92;;;;;;;;;;4834100;29;21002;-79
2022/01/21 13:47:41;;;;;;;4.13;2.40;;;;;;;;;;4828602;29;20058;-80
2022/01/21 13:50:17;;;;;;;4.30;1.88;;;;;;;;;;4829203;29;20050;-80
2022/01/21 13:52:46;;;;;;;2.80;2.20;;;;;;;;;;4822211;29;20571;-80
2022/01/21 13:55:26;;;;;;;3.67;3.35;;;;;;;;;;4832507;29;20065;-80
2022/01/21 13:57:54;;;;;;;5.45;2.63;;;;;;;;;;4815933;29;20058;-80
2022/01/21 14:00:41;;;;;;;7.10;3.15;;;;;;;;;;4833469;29;20634;-80
2022/01/21 14:03:22;;;;;;;6.47;2.17;;;;;;;;;;4833793;29;20630;-80
2022/01/21 14:05:50;;;;;;;3.08;2.00;;;;;;;;;;4834504;29;20416;-80
2022/01/21 14:08:28;;;;;;;3.17;2.63;;;;;;;;;;4832970;29;20065;-80
2022/01/21 14:10:58;;;;;;;3.15;1.83;;;;;;;;;;4811457;29;20058;-81
2022/01/21 14:13:31;;;;;;;3.33;3.05;;;;;;;;;;4813833;29;20050;-80
2022/01/21 14:16:03;;;;;;;3.00;2.05;;;;;;;;;;4814866;29;20053;-80
2022/01/21 14:18:33;;;;;;;5.20;4.72;;;;;;;;;;4815199;29;20500;-80
2022/01/21 14:21:04;;;;;;;3.88;3.60;;;;;;;;;;4797047;29;20054;-80
2022/01/21 14:23:37;;;;;;;3.28;3.05;;;;;;;;;;4798945;29;20047;-81
2022/01/21 14:26:06;;;;;;;3.65;2.17;;;;;;;;;;4800934;29;20058;-80
2022/01/21 14:28:54;;;;;;;4.88;4.38;;;;;;;;;;4813660;29;20057;-83
2022/01/21 14:31:39;;;;;;;10.45;3.42;;;;;;;;;;4829001;29;20053;-82
2022/01/21 14:34:21;;;;;;;3.05;2.95;;;;;;;;;;4815688;29;20054;-82
2022/01/21 14:37:06;;;;;;;5.78;2.88;;;;;;;;;;4810950;29;20055;-82
2022/01/21 14:39:35;;;;;;;5.13;2.35;;;;;;;;;;4811776;29;20493;-82
2022/01/21 14:42:04;;;;;;;5.70;3.42;;;;;;;;;;4805894;29;20490;-82
2022/01/21 14:44:42;;;;;;;2.13;1.92;;;;;;;;;;4800063;29;20047;-83
2022/01/21 14:47:13;;;;;;;2.78;2.55;;;;;;;;;;4815541;29;20065;-82
2022/01/21 14:49:42;;;;;;;10.70;2.63;;;;;;;;;;4816264;29;20081;-83
2022/01/21 14:54:55;;;;;;;5.20;1.95;;;;;;;;;;4816188;29;20691;-82
2022/01/21 14:57:31;;;;;;;1.70;1.58;;;;;;;;;;4809156;29;20089;-82
2022/01/21 15:00:00;;;;;;;2.40;1.98;;;;;;;;;;4834366;29;20058;-82
2022/01/21 15:02:33;;;;;;;2.35;2.15;;;;;;;;;;4837173;29;20108;-83
2022/01/21 15:05:04;;;;;;;4.30;3.33;;;;;;;;;;4824733;29;20073;-83
2022/01/21 15:07:34;;;;;;;3.60;2.38;;;;;;;;;;4819996;29;20661;-82
2022/01/21 15:10:16;;;;;;;3.92;1.92;;;;;;;;;;4815265;29;20424;-82
2022/01/21 15:15:46;;;;;;;3.70;3.47;;;;;;;;;;4813674;29;20062;-82
2022/01/21 15:18:15;;;;;;;5.80;3.60;;;;;;;;;;4818963;29;20055;-82
2022/01/21 15:20:45;;;;;;;9.75;3.60;;;;;;;;;;4818434;29;20485;-83
2022/01/21 15:23:13;;;;;;;3.30;3.10;;;;;;;;;;4817791;29;20073;-83
2022/01/21 15:25:41;;;;;;;2.90;2.63;;;;;;;;;;4819188;29;20481;-82
2022/01/21 15:28:10;;;;;;;3.05;2.85;;;;;;;;;;4824680;29;20046;-84
2022/01/21 15:30:38;;;;;;;6.20;3.70;;;;;;;;;;4818719;29;20053;-81
2022/01/21 15:33:07;;;;;;;6.22;3.20;;;;;;;;;;4818799;29;20046;-82
2022/01/21 15:35:35;;;;;;;4.03;2.50;;;;;;;;;;4826404;29;20662;-81
2022/01/21 15:38:04;;;;;;;4.97;3.03;;;;;;;;;;4809622;29;20078;-84
2022/01/21 15:40:34;;;;;;;5.70;4.05;;;;;;;;;;4819069;29;20516;-83
2022/01/21 15:43:02;;;;;;;7.13;3.60;;;;;;;;;;4803868;29;20057;-80
2022/01/21 15:45:30;;;;;;;4.43;2.45;;;;;;;;;;4820934;29;20053;-81
2022/01/21 15:47:58;;;;;;;3.13;2.80;;;;;;;;;;4832819;29;20065;-80
2022/01/21 15:50:26;;;;;;;4.38;3.92;;;;;;;;;;4813895;29;20055;-80
2022/01/21 15:52:54;;;;;;;2.83;2.63;;;;;;;;;;4819803;29;20054;-81
2022/01/21 15:55:22;;;;;;;2.90;2.55;;;;;;;;;;4815228;29;20070;-81
2022/01/21 15:57:50;;;;;;;6.68;2.67;;;;;;;;;;4828778;29;20054;-80
2022/01/21 16:00:19;;;;;;;5.10;3.78;;;;;;;;;;4812645;29;20054;-81
2022/01/21 16:02:49;;;;;;;2.90;2.45;;;;;;;;;;4797295;29;20519;-80
2022/01/21 16:05:18;;;;;;;8.88;3.22;;;;;;;;;;4817016;29;20082;-83
2022/01/21 16:07:47;;;;;;;3.42;2.63;;;;;;;;;;4786651;29;20046;-83
2022/01/21 16:10:15;;;;;;;4.20;2.78;;;;;;;;;;4802963;29;20497;-80
2022/01/21 16:12:43;;;;;;;2.85;2.65;;;;;;;;;;4827892;29;20050;-82
2022/01/21 16:15:11;;;;;;;3.33;2.80;;;;;;;;;;4816469;29;20054;-83